Iwanui, Waitara Historical Data
Daily Summary for November 11, 2018 Units:  Metric    English   Both
« Previous Day
Next Day »
Daily Weekly Monthly Yearly Custom
  High: Low: Average:
Temperature: 21.8 °C 10 °C 16.4 °C
Dew Point: 12.4 °C 6.6 °C 9.9 °C
Humidity: 87% 42% 66%
Wind Speed: 11.1km/h 0km/h 4.5km/h
Wind Gust: 21.9km/h - -
Wind- - SSW
Pressure: 1024.6 hPa 1021.9 hPa -
Precipitation: 0 mm    
Historical Graphs
 
 
Tabular Data for November 11, 2018
Time Temperature Dew Point Pressure Wind Wind Speed Wind Gust Humidity Rainfall Rate (Hourly)
00:04 11.8 °C 6.9 °C 1022.2 hPa South 7.2 km/h 21.9 km/h 72% 0 mm
00:09 11.8 °C 7.1 °C 1022.2 hPa South 8.7 km/h 19.5 km/h 73% 0 mm
00:14 11.7 °C 7 °C 1022.2 hPa SSE 11.1 km/h 19.5 km/h 73% 0 mm
00:20 11.6 °C 7.1 °C 1022.2 hPa South 7.2 km/h 17.2 km/h 74% 0 mm
00:25 11.5 °C 7.1 °C 1022.2 hPa South 3.5 km/h 17.2 km/h 74% 0 mm
00:29 11.5 °C 7.1 °C 1022.2 hPa SSE 9.7 km/h 18.3 km/h 74% 0 mm
00:35 11.5 °C 7.1 °C 1022.6 hPa SSE 7.2 km/h 18.3 km/h 74% 0 mm
00:39 11.5 °C 7.1 °C 1022.2 hPa South 8.7 km/h 18.3 km/h 74% 0 mm
00:45 11.4 °C 7.1 °C 1022.2 hPa South 6.1 km/h 15.8 km/h 75% 0 mm
00:50 11.4 °C 7.1 °C 1022.6 hPa SSE 9.7 km/h 15.8 km/h 75% 0 mm
00:55 11.3 °C 7.1 °C 1022.6 hPa SSE 7.2 km/h 12.2 km/h 75% 0 mm
00:59 11.3 °C 7.1 °C 1022.6 hPa SSE 6.1 km/h 12.2 km/h 75% 0 mm
01:05 11.3 °C 7.1 °C 1022.2 hPa SSE 6.1 km/h 15.8 km/h 75% 0 mm
01:10 11.3 °C 7.1 °C 1022.2 hPa SE 5 km/h 15.8 km/h 75% 0 mm
01:14 11.4 °C 7.1 °C 1022.2 hPa SE 2.6 km/h 15.8 km/h 75% 0 mm
01:19 11.4 °C 7.1 °C 1022.2 hPa SSE 8.7 km/h 15.8 km/h 75% 0 mm
01:24 11.4 °C 7.1 °C 1022.2 hPa SSE 6.1 km/h 15.8 km/h 75% 0 mm
01:30 11.4 °C 7.1 °C 1022.2 hPa SSE 5 km/h 11.1 km/h 75% 0 mm
01:35 11.3 °C 7.1 °C 1022.2 hPa SSE 3.5 km/h 8.7 km/h 75% 0 mm
01:40 11.3 °C 7.2 °C 1022.2 hPa SSE 2.6 km/h 13.4 km/h 76% 0 mm
01:45 11.2 °C 7.1 °C 1022.2 hPa South 2.6 km/h 13.4 km/h 76% 0 mm
01:49 11.1 °C 7.1 °C 1022.2 hPa Calm   8.7 km/h 76% 0 mm
01:55 11.1 °C 7.1 °C 1022.2 hPa SSW 1.1 km/h 6.1 km/h 76% 0 mm
01:59 10.9 °C 7.1 °C 1022.2 hPa SSW 2.6 km/h 5 km/h 77% 0 mm
02:04 10.8 °C 6.9 °C 1022.2 hPa SSW 2.6 km/h 5 km/h 77% 0 mm
02:09 10.7 °C 6.8 °C 1022.2 hPa Calm   3.5 km/h 77% 0 mm
02:14 10.6 °C 6.7 °C 1022.2 hPa Calm   2.6 km/h 77% 0 mm
02:19 10.5 °C 6.8 °C 1022.2 hPa South 1.1 km/h 5 km/h 78% 0 mm
02:25 10.3 °C 6.6 °C 1022.2 hPa South 3.5 km/h 6.1 km/h 78% 0 mm
02:29 10.3 °C 6.8 °C 1022.2 hPa South 1.1 km/h 6.1 km/h 79% 0 mm
02:35 10.2 °C 6.7 °C 1022.2 hPa SSE 1.1 km/h 5 km/h 79% 0 mm
02:39 10.1 °C 6.8 °C 1022.2 hPa SSE 2.6 km/h 5 km/h 80% 0 mm
02:45 10 °C 6.7 °C 1021.9 hPa SSE 1.1 km/h 5 km/h 80% 0 mm
02:49 10 °C 6.7 °C 1022.2 hPa South 2.6 km/h 6.1 km/h 80% 0 mm
02:55 10.1 °C 7 °C 1022.2 hPa South 3.5 km/h 6.1 km/h 81% 0 mm
02:59 10.3 °C 7.4 °C 1022.2 hPa SSE 3.5 km/h 8.7 km/h 82% 0 mm
03:05 10.5 °C 7.6 °C 1022.2 hPa SSE 1.1 km/h 8.7 km/h 82% 0 mm
03:10 10.6 °C 7.8 °C 1022.2 hPa South 3.5 km/h 11.1 km/h 83% 0 mm
03:15 10.7 °C 7.9 °C 1022.2 hPa South 3.5 km/h 11.1 km/h 83% 0 mm
03:19 10.7 °C 7.9 °C 1022.2 hPa South 2.6 km/h 7.2 km/h 83% 0 mm
03:24 10.8 °C 7.8 °C 1022.2 hPa South 2.6 km/h 8.7 km/h 82% 0 mm
03:30 10.7 °C 7.8 °C 1022.2 hPa South 2.6 km/h 8.7 km/h 82% 0 mm
03:35 10.6 °C 7.7 °C 1022.2 hPa South 3.5 km/h 7.2 km/h 82% 0 mm
03:39 10.6 °C 7.7 °C 1022.2 hPa South 2.6 km/h 6.1 km/h 82% 0 mm
03:44 10.5 °C 7.6 °C 1022.2 hPa SSE 2.6 km/h 6.1 km/h 82% 0 mm
03:49 10.5 °C 7.6 °C 1022.2 hPa SSE 5 km/h 8.7 km/h 82% 0 mm
03:54 10.5 °C 7.7 °C 1022.2 hPa SSE 5 km/h 9.7 km/h 83% 0 mm
03:59 10.5 °C 7.7 °C 1022.2 hPa South 2.6 km/h 9.7 km/h 83% 0 mm
04:05 10.5 °C 7.7 °C 1022.2 hPa South 5 km/h 7.2 km/h 83% 0 mm
04:10 10.5 °C 7.7 °C 1022.2 hPa South 2.6 km/h 7.2 km/h 83% 0 mm
04:14 10.4 °C 7.7 °C 1022.2 hPa SSE 2.6 km/h 7.2 km/h 83% 0 mm
04:20 10.4 °C 7.7 °C 1022.2 hPa SSE 2.6 km/h 6.1 km/h 83% 0 mm
04:24 10.4 °C 7.7 °C 1022.2 hPa Calm   5 km/h 83% 0 mm
04:29 10.3 °C 7.6 °C 1022.2 hPa Calm   5 km/h 83% 0 mm
04:34 10.3 °C 7.6 °C 1022.2 hPa SSW 2.6 km/h 7.2 km/h 83% 0 mm
04:39 10.3 °C 7.7 °C 1022.2 hPa SSE 3.5 km/h 7.2 km/h 84% 0 mm
04:44 10.4 °C 7.8 °C 1022.2 hPa SSE 3.5 km/h 7.2 km/h 84% 0 mm
04:49 10.5 °C 7.9 °C 1022.2 hPa SSE 3.5 km/h 8.7 km/h 84% 0 mm
04:54 10.6 °C 8.2 °C 1022.2 hPa SSE 5 km/h 8.7 km/h 85% 0 mm
04:59 10.7 °C 8.3 °C 1022.6 hPa South 6.1 km/h 8.7 km/h 85% 0 mm
05:04 10.8 °C 8.4 °C 1022.6 hPa SSE 3.5 km/h 8.7 km/h 85% 0 mm
05:10 10.9 °C 8.5 °C 1022.2 hPa SSE 1.1 km/h 7.2 km/h 85% 0 mm
05:14 10.8 °C 8.4 °C 1022.2 hPa South 2.6 km/h 6.1 km/h 85% 0 mm
05:20 10.7 °C 8.3 °C 1022.2 hPa SSE 3.5 km/h 6.1 km/h 85% 0 mm
05:24 10.8 °C 8.4 °C 1022.6 hPa SSE 2.6 km/h 6.1 km/h 85% 0 mm
05:29 10.8 °C 8.4 °C 1022.2 hPa SSE 3.5 km/h 7.2 km/h 85% 0 mm
05:34 10.9 °C 8.5 °C 1022.6 hPa SSE 1.1 km/h 8.7 km/h 85% 0 mm
05:39 11 °C 8.6 °C 1022.6 hPa SSE 2.6 km/h 8.7 km/h 85% 0 mm
05:44 11 °C 8.6 °C 1022.6 hPa South 3.5 km/h 7.2 km/h 85% 0 mm
05:50 10.8 °C 8.6 °C 1022.6 hPa SSE 3.5 km/h 7.2 km/h 86% 0 mm
05:54 10.7 °C 8.3 °C 1022.6 hPa SSE 3.5 km/h 6.1 km/h 85% 0 mm
05:59 10.5 °C 8.1 °C 1022.6 hPa South 3.5 km/h 7.2 km/h 85% 0 mm
06:04 10.5 °C 8.1 °C 1022.6 hPa South 3.5 km/h 7.2 km/h 85% 0 mm
06:09 10.4 °C 8 °C 1022.6 hPa South 3.5 km/h 7.2 km/h 85% 0 mm
06:14 10.4 °C 8.2 °C 1022.6 hPa SSE 5 km/h 7.2 km/h 86% 0 mm
06:19 10.5 °C 8.3 °C 1022.6 hPa SSE 2.6 km/h 7.2 km/h 86% 0 mm
06:24 10.5 °C 8.3 °C 1022.9 hPa South 3.5 km/h 7.2 km/h 86% 0 mm
06:30 10.6 °C 8.3 °C 1022.9 hPa South 3.5 km/h 7.2 km/h 86% 0 mm
06:35 10.6 °C 8.6 °C 1023.2 hPa South 1.1 km/h 7.2 km/h 87% 0 mm
06:39 10.5 °C 8.4 °C 1023.2 hPa South 2.6 km/h 6.1 km/h 87% 0 mm
06:45 10.6 °C 8.6 °C 1023.2 hPa South 5 km/h 7.2 km/h 87% 0 mm
06:49 10.8 °C 8.7 °C 1023.2 hPa SSE 3.5 km/h 7.2 km/h 87% 0 mm
06:54 11 °C 8.8 °C 1023.2 hPa SSE 3.5 km/h 7.2 km/h 86% 0 mm
06:59 11.7 °C 9.6 °C 1023.2 hPa SSE 3.5 km/h 7.2 km/h 87% 0 mm
07:04 12.7 °C 10.4 °C 1023.2 hPa SSE 5 km/h 7.2 km/h 86% 0 mm
07:09 13 °C 10.7 °C 1023.2 hPa SSE 3.5 km/h 7.2 km/h 86% 0 mm
07:14 13.7 °C 11.1 °C 1023.6 hPa SSE 3.5 km/h 7.2 km/h 84% 0 mm
07:20 13.4 °C 10.2 °C 1023.6 hPa SE 1.1 km/h 7.2 km/h 81% 0 mm
07:24 13.7 °C 10.1 °C 1023.6 hPa South 2.6 km/h 7.2 km/h 79% 0 mm
07:29 15.2 °C 11.2 °C 1023.6 hPa South 2.6 km/h 7.2 km/h 77% 0 mm
07:35 15.9 °C 11.5 °C 1023.6 hPa South 3.5 km/h 6.1 km/h 75% 0 mm
07:40 17 °C 11.7 °C 1023.6 hPa South 3.5 km/h 6.1 km/h 71% 0 mm
07:45 17.5 °C 11.3 °C 1023.6 hPa South 3.5 km/h 8.7 km/h 67% 0 mm
07:49 16.8 °C 9.9 °C 1023.6 hPa SSE 1.1 km/h 11.1 km/h 64% 0 mm
07:54 16.8 °C 10.4 °C 1023.6 hPa SSE 2.6 km/h 11.1 km/h 66% 0 mm
07:59 17.3 °C 10.9 °C 1023.6 hPa SSE 5 km/h 6.1 km/h 66% 0 mm
08:04 18.1 °C 11.4 °C 1023.6 hPa SSE 1.1 km/h 6.1 km/h 65% 0 mm
08:09 18.8 °C 11.4 °C 1023.9 hPa SSE 1.1 km/h 7.2 km/h 62% 0 mm
08:15 18.9 °C 10.7 °C 1023.9 hPa SSE 2.6 km/h 7.2 km/h 59% 0 mm
08:19 19.1 °C 10.9 °C 1023.9 hPa SSE 2.6 km/h 7.2 km/h 59% 0 mm
08:24 20 °C 11.2 °C 1023.9 hPa SE 2.6 km/h 7.2 km/h 57% 0 mm
08:29 20.1 °C 10.8 °C 1023.9 hPa SSE 3.5 km/h 6.1 km/h 55% 0 mm
08:34 20 °C 10.4 °C 1023.9 hPa SSE 2.6 km/h 8.7 km/h 54% 0 mm
08:39 20.1 °C 10.8 °C 1023.9 hPa SE 2.6 km/h 8.7 km/h 55% 0 mm
08:44 20.1 °C 10.5 °C 1023.9 hPa ENE 3.5 km/h 8.7 km/h 54% 0 mm
08:49 19.5 °C 10.5 °C 1023.9 hPa NE 2.6 km/h 8.7 km/h 56% 0 mm
08:54 19.1 °C 10.7 °C 1023.9 hPa ENE 2.6 km/h 8.7 km/h 58% 0 mm
08:59 19 °C 10.6 °C 1023.9 hPa ENE 3.5 km/h 7.2 km/h 58% 0 mm
09:05 18.2 °C 10.8 °C 1023.9 hPa NE 2.6 km/h 7.2 km/h 62% 0 mm
09:10 18.5 °C 11.1 °C 1023.9 hPa Calm   5 km/h 62% 0 mm
09:14 19 °C 11.3 °C 1023.9 hPa ENE 1.1 km/h 6.1 km/h 61% 0 mm
09:19 19.3 °C 11.6 °C 1023.9 hPa NE 5 km/h 8.7 km/h 61% 0 mm
09:24 19.5 °C 11.6 °C 1023.9 hPa NNE 3.5 km/h 8.7 km/h 60% 0 mm
09:29 19.2 °C 11.3 °C 1023.9 hPa NE 3.5 km/h 8.7 km/h 60% 0 mm
09:34 19.2 °C 11.3 °C 1023.9 hPa NNE 7.2 km/h 9.7 km/h 60% 0 mm
09:39 18.8 °C 10.9 °C 1023.9 hPa North 8.7 km/h 11.1 km/h 60% 0 mm
09:44 18 °C 10.8 °C 1023.9 hPa NNE 2.6 km/h 12.2 km/h 63% 0 mm
09:49 18.1 °C 11.2 °C 1023.9 hPa NNE 6.1 km/h 12.2 km/h 64% 0 mm
09:54 18 °C 11.3 °C 1023.9 hPa NNE 5 km/h 11.1 km/h 65% 0 mm
10:00 18.6 °C 12.1 °C 1023.9 hPa NNW 5 km/h 12.2 km/h 66% 0 mm
10:05 19.1 °C 11.7 °C 1023.9 hPa North 5 km/h 12.2 km/h 62% 0 mm
10:09 18.9 °C 11.7 °C 1023.9 hPa NE 3.5 km/h 11.1 km/h 63% 0 mm
10:15 19.7 °C 12 °C 1023.9 hPa NNE 8.7 km/h 12.2 km/h 61% 0 mm
10:19 19.5 °C 11.6 °C 1023.9 hPa NNE 6.1 km/h 12.2 km/h 60% 0 mm
10:25 19.2 °C 11.5 °C 1023.9 hPa NNE 2.6 km/h 12.2 km/h 61% 0 mm
10:29 19.9 °C 12.2 °C 1023.9 hPa NNE 6.1 km/h 11.1 km/h 61% 0 mm
10:34 19.8 °C 11.6 °C 1023.9 hPa North 5 km/h 11.1 km/h 59% 0 mm
10:39 19.8 °C 11.6 °C 1024.3 hPa North 6.1 km/h 11.1 km/h 59% 0 mm
10:44 19.8 °C 11.8 °C 1023.9 hPa NNW 6.1 km/h 8.7 km/h 60% 0 mm
10:49 20.1 °C 11.3 °C 1023.9 hPa NW 1.1 km/h 8.7 km/h 57% 0 mm
10:52 20.1 °C 11.1 °C 1024.3 hPa NNW 6.1 km/h 8.7 km/h 56% 0 mm
10:59 19.9 °C 12.2 °C 1024.3 hPa North 7.2 km/h 11.1 km/h 61% 0 mm
11:04 20 °C 11.8 °C 1024.3 hPa North 6.1 km/h 14.8 km/h 59% 0 mm
11:09 20 °C 12 °C 1024.3 hPa North 8.7 km/h 14.8 km/h 60% 0 mm
11:14 19.6 °C 12.1 °C 1024.3 hPa North 6.1 km/h 15.8 km/h 62% 0 mm
11:19 19.8 °C 12.1 °C 1023.9 hPa North 3.5 km/h 15.8 km/h 61% 0 mm
11:25 20.3 °C 12.1 °C 1023.9 hPa North 3.5 km/h 12.2 km/h 59% 0 mm
11:29 20.4 °C 11.6 °C 1023.9 hPa NNE 2.6 km/h 7.2 km/h 57% 0 mm
11:34 20.5 °C 11.4 °C 1024.3 hPa NNE 9.7 km/h 13.4 km/h 56% 0 mm
11:40 19.8 °C 12.3 °C 1024.3 hPa NNE 7.2 km/h 13.4 km/h 62% 0 mm
11:44 19.8 °C 12.3 °C 1023.9 hPa NE 5 km/h 13.4 km/h 62% 0 mm
11:49 20 °C 12 °C 1023.9 hPa North 3.5 km/h 15.8 km/h 60% 0 mm
11:54 20.1 °C 12.3 °C 1024.3 hPa North 7.2 km/h 15.8 km/h 61% 0 mm
12:00 20.2 °C 12.2 °C 1024.3 hPa North 8.7 km/h 12.2 km/h 60% 0 mm
12:05 20.2 °C 12.4 °C 1024.3 hPa NNW 9.7 km/h 13.4 km/h 61% 0 mm
12:10 20.3 °C 12.1 °C 1024.3 hPa NNW 5 km/h 13.4 km/h 59% 0 mm
12:15 20.2 °C 12.2 °C 1024.3 hPa North 5 km/h 13.4 km/h 60% 0 mm
12:19 20.2 °C 11.9 °C 1024.3 hPa NNW 7.2 km/h 13.4 km/h 59% 0 mm
12:24 20.4 °C 12.4 °C 1024.3 hPa NNW 6.1 km/h 14.8 km/h 60% 0 mm
12:30 20.2 °C 11.4 °C 1024.3 hPa North 8.7 km/h 14.8 km/h 57% 0 mm
12:34 20.5 °C 11.7 °C 1024.3 hPa North 6.1 km/h 13.4 km/h 57% 0 mm
12:39 20.5 °C 11.2 °C 1024.3 hPa North 6.1 km/h 13.4 km/h 55% 0 mm
12:44 20.6 °C 11.3 °C 1024.3 hPa NNW 7.2 km/h 13.4 km/h 55% 0 mm
12:49 20.7 °C 11.1 °C 1024.3 hPa NNW 8.7 km/h 13.4 km/h 54% 0 mm
12:54 20.5 °C 11.2 °C 1024.3 hPa North 7.2 km/h 13.4 km/h 55% 0 mm
12:59 20.5 °C 10.9 °C 1024.3 hPa North 8.7 km/h 13.4 km/h 54% 0 mm
13:04 20.3 °C 11 °C 1024.3 hPa North 8.7 km/h 15.8 km/h 55% 0 mm
13:10 20.7 °C 11.1 °C 1024.3 hPa NNW 5 km/h 15.8 km/h 54% 0 mm
13:14 20.7 °C 10.8 °C 1024.3 hPa North 6.1 km/h 13.4 km/h 53% 0 mm
13:20 20.9 °C 11 °C 1024.3 hPa NNE 6.1 km/h 14.8 km/h 53% 0 mm
13:24 21.1 °C 11.2 °C 1024.3 hPa NNW 6.1 km/h 14.8 km/h 53% 0 mm
13:29 21.1 °C 11.4 °C 1023.9 hPa NNW 9.7 km/h 15.8 km/h 54% 0 mm
13:35 20.7 °C 11.9 °C 1023.9 hPa NW 7.2 km/h 15.8 km/h 57% 0 mm
13:39 20.3 °C 11.2 °C 1024.3 hPa NW 8.7 km/h 15.8 km/h 56% 0 mm
13:45 20.2 °C 11.4 °C 1023.9 hPa NW 2.6 km/h 15.8 km/h 57% 0 mm
13:49 20.6 °C 11.8 °C 1024.3 hPa West 7.2 km/h 14.8 km/h 57% 0 mm
13:54 21 °C 11.3 °C 1023.9 hPa WNW 5 km/h 12.2 km/h 54% 0 mm
13:59 21.4 °C 11.4 °C 1023.9 hPa WNW 6.1 km/h 12.2 km/h 53% 0 mm
14:05 21.1 °C 10.6 °C 1023.9 hPa WNW 7.2 km/h 11.1 km/h 51% 0 mm
14:09 21.2 °C 10.9 °C 1023.9 hPa WNW 7.2 km/h 11.1 km/h 52% 0 mm
14:14 21.5 °C 11.2 °C 1023.9 hPa NW 8.7 km/h 12.2 km/h 52% 0 mm
14:20 21.3 °C 10.4 °C 1023.9 hPa NNW 7.2 km/h 13.4 km/h 50% 0 mm
14:24 21.6 °C 11.1 °C 1023.9 hPa NNW 3.5 km/h 13.4 km/h 51% 0 mm
14:30 21.7 °C 10.8 °C 1023.9 hPa NNW 6.1 km/h 12.2 km/h 50% 0 mm
14:34 21.7 °C 11.1 °C 1023.9 hPa North 7.2 km/h 12.2 km/h 51% 0 mm
14:40 21.7 °C 11.1 °C 1023.9 hPa North 5 km/h 14.8 km/h 51% 0 mm
14:44 21.6 °C 11.3 °C 1023.9 hPa NNW 6.1 km/h 14.8 km/h 52% 0 mm
14:49 21.5 °C 10.9 °C 1023.9 hPa NNW 3.5 km/h 13.4 km/h 51% 0 mm
14:54 21.5 °C 10.9 °C 1023.9 hPa NNW 7.2 km/h 12.2 km/h 51% 0 mm
15:00 21.2 °C 10.7 °C 1023.6 hPa NNW 8.7 km/h 15.8 km/h 51% 0 mm
15:04 21 °C 10.8 °C 1023.6 hPa NW 7.2 km/h 15.8 km/h 52% 0 mm
15:09 20.7 °C 10.5 °C 1023.6 hPa NW 7.2 km/h 14.8 km/h 52% 0 mm
15:15 20.7 °C 11.1 °C 1023.6 hPa NW 3.5 km/h 14.8 km/h 54% 0 mm
15:19 21.1 °C 11.2 °C 1023.6 hPa NNW 6.1 km/h 11.1 km/h 53% 0 mm
15:25 21.1 °C 10.9 °C 1023.6 hPa NW 6.1 km/h 11.1 km/h 52% 0 mm
15:29 20.9 °C 11 °C 1023.6 hPa NW 6.1 km/h 15.8 km/h 53% 0 mm
15:34 21 °C 11.1 °C 1023.2 hPa WNW 1.1 km/h 15.8 km/h 53% 0 mm
15:40 21.5 °C 10.9 °C 1023.6 hPa NW 6.1 km/h 12.2 km/h 51% 0 mm
15:44 21.4 °C 10.6 °C 1023.2 hPa NW 5 km/h 12.2 km/h 50% 0 mm
15:49 21.5 °C 10.7 °C 1023.2 hPa NW 6.1 km/h 12.2 km/h 50% 0 mm
15:55 21.3 °C 10.4 °C 1023.2 hPa NW 5 km/h 13.4 km/h 50% 0 mm
16:00 21.7 °C 11.1 °C 1023.2 hPa WNW 5 km/h 13.4 km/h 51% 0 mm
16:04 21.6 °C 10.7 °C 1023.2 hPa West 5 km/h 12.2 km/h 50% 0 mm
16:09 21.8 °C 10.9 °C 1023.2 hPa WNW 6.1 km/h 12.2 km/h 50% 0 mm
16:14 21.6 °C 10.7 °C 1023.2 hPa WNW 9.7 km/h 12.2 km/h 50% 0 mm
16:19 21.3 °C 11.1 °C 1023.2 hPa NW 7.2 km/h 13.4 km/h 52% 0 mm
16:25 21.5 °C 10.9 °C 1023.2 hPa WNW 6.1 km/h 13.4 km/h 51% 0 mm
16:29 21.5 °C 10.9 °C 1023.2 hPa West 8.7 km/h 14.8 km/h 51% 0 mm
16:35 21.4 °C 11.2 °C 1023.2 hPa WNW 5 km/h 14.8 km/h 52% 0 mm
16:39 21.5 °C 10.7 °C 1023.2 hPa West 7.2 km/h 13.4 km/h 50% 0 mm
16:44 21.2 °C 10.4 °C 1023.2 hPa WSW 5 km/h 13.4 km/h 50% 0 mm
16:49 21.7 °C 10.8 °C 1022.9 hPa WSW 7.2 km/h 13.4 km/h 50% 0 mm
16:54 21.3 °C 10.8 °C 1022.9 hPa West 5 km/h 14.8 km/h 51% 0 mm
17:00 21.5 °C 10.9 °C 1023.2 hPa West 8.7 km/h 14.8 km/h 51% 0 mm
17:04 21.2 °C 10.7 °C 1022.9 hPa West 7.2 km/h 12.2 km/h 51% 0 mm
17:10 21.2 °C 10.7 °C 1022.9 hPa WNW 6.1 km/h 12.2 km/h 51% 0 mm
17:14 21.7 °C 11.1 °C 1022.9 hPa WNW 6.1 km/h 13.4 km/h 51% 0 mm
17:19 21.5 °C 10.7 °C 1022.9 hPa West 8.7 km/h 13.4 km/h 50% 0 mm
17:25 20.5 °C 10.6 °C 1022.9 hPa West 5 km/h 13.4 km/h 53% 0 mm
17:29 20.7 °C 10.8 °C 1022.9 hPa West 6.1 km/h 11.1 km/h 53% 0 mm
17:34 21.3 °C 10.4 °C 1022.9 hPa West 9.7 km/h 13.4 km/h 50% 0 mm
17:39 21 °C 9.9 °C 1022.9 hPa West 7.2 km/h 13.4 km/h 49% 0 mm
17:44 21 °C 10.2 °C 1022.9 hPa West 8.7 km/h 13.4 km/h 50% 0 mm
17:49 21.3 °C 10.2 °C 1022.9 hPa WNW 8.7 km/h 13.4 km/h 49% 0 mm
17:55 21.3 °C 10.2 °C 1022.9 hPa West 6.1 km/h 12.2 km/h 49% 0 mm
18:00 21.6 °C 10.4 °C 1022.9 hPa WSW 8.7 km/h 12.2 km/h 49% 0 mm
18:04 21.5 °C 9.7 °C 1022.9 hPa WSW 8.7 km/h 12.2 km/h 47% 0 mm
18:09 21.5 °C 8.7 °C 1022.9 hPa WSW 7.2 km/h 12.2 km/h 44% 0 mm
18:14 21.3 °C 7.9 °C 1022.6 hPa West 5 km/h 12.2 km/h 42% 0 mm
18:19 21 °C 8.3 °C 1022.6 hPa West 6.1 km/h 9.7 km/h 44% 0 mm
18:24 20 °C 8.9 °C 1022.9 hPa WNW 5 km/h 9.7 km/h 49% 0 mm
18:30 19.1 °C 9 °C 1022.9 hPa West 3.5 km/h 9.7 km/h 52% 0 mm
18:35 18.7 °C 9.5 °C 1022.6 hPa WNW 3.5 km/h 9.7 km/h 55% 0 mm
18:40 18.8 °C 9.8 °C 1022.6 hPa WNW 1.1 km/h 9.7 km/h 56% 0 mm
18:45 18.7 °C 10 °C 1022.9 hPa West 2.6 km/h 7.2 km/h 57% 0 mm
18:49 18.5 °C 10.1 °C 1022.6 hPa WSW 3.5 km/h 7.2 km/h 58% 0 mm
18:54 18.5 °C 10.1 °C 1022.6 hPa WSW 1.1 km/h 7.2 km/h 58% 0 mm
18:59 18.8 °C 10.6 °C 1022.9 hPa SW 2.6 km/h 7.2 km/h 59% 0 mm
19:05 19.2 °C 10.2 °C 1022.9 hPa WSW 2.6 km/h 7.2 km/h 56% 0 mm
19:10 18.9 °C 10.2 °C 1022.9 hPa West 2.6 km/h 7.2 km/h 57% 0 mm
19:15 18.8 °C 10.4 °C 1022.9 hPa West 2.6 km/h 6.1 km/h 58% 0 mm
19:19 18.5 °C 10.3 °C 1022.9 hPa West 2.6 km/h 6.1 km/h 59% 0 mm
19:24 18.3 °C 10.4 °C 1023.2 hPa West 2.6 km/h 7.2 km/h 60% 0 mm
19:29 18.1 °C 10.4 °C 1022.9 hPa West 1.1 km/h 7.2 km/h 61% 0 mm
19:35 18.1 °C 10.4 °C 1023.2 hPa West 2.6 km/h 7.2 km/h 61% 0 mm
19:40 18.1 °C 10.4 °C 1023.2 hPa WSW 1.1 km/h 6.1 km/h 61% 0 mm
19:45 18 °C 10.1 °C 1023.2 hPa WSW 2.6 km/h 5 km/h 60% 0 mm
19:50 17.9 °C 10.1 °C 1023.2 hPa West 1.1 km/h 5 km/h 60% 0 mm
19:54 17.9 °C 10.1 °C 1023.2 hPa WSW 1.1 km/h 3.5 km/h 60% 0 mm
19:59 17.7 °C 10.1 °C 1023.2 hPa SW 1.1 km/h 3.5 km/h 61% 0 mm
20:04 17.7 °C 10.3 °C 1023.2 hPa Calm   3.5 km/h 62% 0 mm
20:09 17.5 °C 10.6 °C 1023.2 hPa South 7.2 km/h 13.4 km/h 64% 0 mm
20:14 17.2 °C 11 °C 1023.2 hPa SSE 3.5 km/h 13.4 km/h 67% 0 mm
20:20 17 °C 11.1 °C 1023.2 hPa SSE 3.5 km/h 11.1 km/h 68% 0 mm
20:25 16.7 °C 11 °C 1023.2 hPa SSE 2.6 km/h 8.7 km/h 69% 0 mm
20:29 16.5 °C 11 °C 1023.2 hPa SSE 3.5 km/h 11.1 km/h 70% 0 mm
20:34 16.4 °C 10.9 °C 1023.2 hPa SSE 2.6 km/h 11.1 km/h 70% 0 mm
20:39 16.3 °C 10.8 °C 1023.6 hPa SSE 1.1 km/h 11.1 km/h 70% 0 mm
20:44 16 °C 10.8 °C 1023.6 hPa SE 5 km/h 11.1 km/h 71% 0 mm
20:49 15.9 °C 10.9 °C 1023.6 hPa SSE 7.2 km/h 14.8 km/h 72% 0 mm
20:54 15.7 °C 10.4 °C 1023.6 hPa SE 5 km/h 15.8 km/h 71% 0 mm
20:59 15.7 °C 10.4 °C 1023.6 hPa SE 3.5 km/h 15.8 km/h 71% 0 mm
21:04 15.7 °C 10.4 °C 1023.6 hPa SSE 5 km/h 15.8 km/h 71% 0 mm
21:09 15.2 °C 10 °C 1023.6 hPa SE 7.2 km/h 15.8 km/h 71% 0 mm
21:15 15.2 °C 10 °C 1023.6 hPa SE 8.7 km/h 14.8 km/h 71% 0 mm
21:19 15.2 °C 10 °C 1023.6 hPa SE 6.1 km/h 14.8 km/h 71% 0 mm
21:25 15.2 °C 10.2 °C 1023.6 hPa SE 5 km/h 13.4 km/h 72% 0 mm
21:30 15.2 °C 10.2 °C 1023.6 hPa SE 7.2 km/h 12.2 km/h 72% 0 mm
21:35 15.2 °C 10 °C 1023.6 hPa SE 5 km/h 13.4 km/h 71% 0 mm
21:40 15.2 °C 10 °C 1023.9 hPa SSE 8.7 km/h 13.4 km/h 71% 0 mm
21:45 15.2 °C 10.2 °C 1023.9 hPa SSE 6.1 km/h 13.4 km/h 72% 0 mm
21:49 15.2 °C 10.2 °C 1023.9 hPa SSE 6.1 km/h 13.4 km/h 72% 0 mm
21:54 15.1 °C 9.9 °C 1023.9 hPa SSE 5 km/h 15.8 km/h 71% 0 mm
21:59 15.1 °C 9.9 °C 1024.3 hPa SSE 6.1 km/h 15.8 km/h 71% 0 mm
22:04 15.1 °C 9.9 °C 1024.3 hPa SSE 2.6 km/h 13.4 km/h 71% 0 mm
22:09 15.1 °C 9.9 °C 1024.3 hPa Calm   12.2 km/h 71% 0 mm
22:14 15.1 °C 10.1 °C 1024.3 hPa SSE 5 km/h 12.2 km/h 72% 0 mm
22:19 15.1 °C 10.1 °C 1024.3 hPa SSE 6.1 km/h 12.2 km/h 72% 0 mm
22:25 15 °C 10 °C 1023.9 hPa SSE 6.1 km/h 11.1 km/h 72% 0 mm
22:30 15 °C 10 °C 1024.3 hPa SSE 5 km/h 11.1 km/h 72% 0 mm
22:35 15 °C 10 °C 1024.3 hPa SSE 5 km/h 13.4 km/h 72% 0 mm
22:39 15 °C 10 °C 1024.3 hPa SSE 3.5 km/h 13.4 km/h 72% 0 mm
22:45 15 °C 10.2 °C 1024.3 hPa SSE 5 km/h 11.1 km/h 73% 0 mm
22:50 15 °C 10.2 °C 1024.3 hPa SSE 5 km/h 11.1 km/h 73% 0 mm
22:55 15 °C 10.2 °C 1024.3 hPa SSE 3.5 km/h 9.7 km/h 73% 0 mm
23:00 14.9 °C 10.3 °C 1024.6 hPa SSE 1.1 km/h 9.7 km/h 74% 0 mm
23:04 15 °C 10.2 °C 1024.6 hPa Calm   7.2 km/h 73% 0 mm
23:10 15 °C 10.2 °C 1024.3 hPa SSE 6.1 km/h 8.7 km/h 73% 0 mm
23:14 15 °C 10.2 °C 1024.3 hPa SSE 1.1 km/h 8.7 km/h 73% 0 mm
23:19 15 °C 10.4 °C 1024.3 hPa Calm   8.7 km/h 74% 0 mm
23:24 15 °C 10.4 °C 1024.3 hPa East 2.6 km/h 5 km/h 74% 0 mm
23:29 15 °C 10.4 °C 1024.6 hPa East 1.1 km/h 5 km/h 74% 0 mm
23:34 14.9 °C 10.5 °C 1024.3 hPa East 1.1 km/h 6.1 km/h 75% 0 mm
23:39 14.9 °C 10.5 °C 1024.6 hPa SE 2.6 km/h 6.1 km/h 75% 0 mm
23:44 14.9 °C 10.5 °C 1024.6 hPa SSE 1.1 km/h 8.7 km/h 75% 0 mm
23:49 14.9 °C 10.7 °C 1024.6 hPa SSE 5 km/h 8.7 km/h 76% 0 mm
23:54 14.8 °C 10.6 °C 1024.6 hPa SSE 5 km/h 11.1 km/h 76% 0 mm
23:59 14.8 °C 10.6 °C 1024.6 hPa SSE 5 km/h 11.1 km/h 76% 0 mm
Waitara, Taranaki. New Zealand Historic Data
Compliments of Weather Underground - 2 mb